Accueil
METAR-TAF:

METAR-TAF

Aéroports :

Aéroport de Jersey

Jersey,

latitude: 49-13N, longitude: 002-12W, altitude: 84 m

Observation

Le bulletin a été fait il y a 27 minutes, à 03:20 UTC
Vent 6 kt de ouest/nord-ouest
Température 14°C
Humidité 82%
Pression 1022 hPa
Visibilité 10 km ou plus

METAR: EGJJ 200320Z AUTO 30006KT 9999 SCT022/// 14/11 Q1022

Heure: 04:47 (03:47 UTC)

Prévision

Le bulletin a été fait il y a 1 heure et 50 minutes, à 01:57 UTC
Prévision valable du 20 à 03 UTC au 20 à 12 UTC
Vent 10 kt de ouest/nord-ouest
Visibilité 10 km ou plus
Quelques nuages à une hauteur de 1600 ft
Probabilité 30% :
Temporairement
du 20 à 03 UTC au 20 à 08 UTC
Visibilité: 8000 m
Nuages fragmentés à une hauteur de 1400 ft
faibles averses de pluie

TAF: EGJJ 200157Z 2003/2012 29010KT 9999 FEW016 PROB30 TEMPO 2003/2008 8000 -SHRA BKN014

Observations et prévisions météorologiques de plus de 4000 aéroports (messages METAR et TAF).

Les stations disponibles sont représentées par des disques jaunes et rouges sur la carte.

Passer la souris dessus pour voir le nom de la station.

Cliquer dessus pour voir les observations et prévisions météorologiques.

Pour changer de carte: cliquez sur les boutons verts avec une croix noire pour zoomer, sur le bouton vert avec un tiret pour effectuer un zoom arrière, ou sur les flèches vertes pour les cartes adjacentes.


METAR-TAF: